Time;durP1;ratioP1;P1;durP2;ratioP2;P2;SDS_P1;SDS_P2;PMS_P1;PMS_P2;Temp;Humidity;BMP_temperature;BMP_pressure;BME280_temperature;BME280_humidity;BME280_pressure;Samples;Min_cycle;Max_cycle;Signal;HPM_P1;HPM_P2
2022/11/27 00:00:58;;;;;;;20.58;4.88;;;;;;;5.95;96.13;102344.44;5040720;28;20028;-82
2022/11/27 00:03:24;;;;;;;14.68;4.75;;;;;;;5.93;96.17;102337.44;5026344;28;20416;-82
2022/11/27 00:05:54;;;;;;;15.45;4.57;;;;;;;5.90;96.30;102343.72;5034218;28;20435;-82
2022/11/27 00:08:20;;;;;;;16.83;4.57;;;;;;;5.88;96.16;102347.34;5045402;28;20101;-81
2022/11/27 00:10:45;;;;;;;19.38;4.60;;;;;;;5.84;96.31;102349.25;5042862;28;20457;-82
2022/11/27 00:13:10;;;;;;;16.67;5.00;;;;;;;5.82;96.39;102345.75;5051490;28;20098;-82
2022/11/27 00:15:35;;;;;;;19.13;4.93;;;;;;;5.80;96.43;102344.91;5030984;28;20032;-82
2022/11/27 00:18:01;;;;;;;23.65;5.60;;;;;;;5.76;96.49;102335.25;5029266;28;20049;-81
2022/11/27 00:20:26;;;;;;;17.48;4.10;;;;;;;5.75;96.60;102333.50;5022510;28;20385;-81
2022/11/27 00:22:51;;;;;;;20.52;5.60;;;;;;;5.74;96.53;102329.06;5025201;28;20087;-82
2022/11/27 00:25:17;;;;;;;16.70;4.10;;;;;;;5.71;96.83;102330.06;5046378;28;20146;-82
2022/11/27 00:27:42;;;;;;;27.33;5.53;;;;;;;5.67;97.02;102322.19;5046849;28;20025;-82
2022/11/27 00:30:07;;;;;;;13.32;4.03;;;;;;;5.63;96.94;102318.72;5022645;28;20081;-82
2022/11/27 00:32:33;;;;;;;18.30;4.32;;;;;;;5.58;97.32;102316.19;5025912;28;20480;-82
2022/11/27 00:34:58;;;;;;;15.80;4.75;;;;;;;5.59;97.27;102311.72;5042991;28;20041;-82
2022/11/27 00:37:23;;;;;;;16.23;4.82;;;;;;;5.56;97.41;102318.03;5039731;28;20451;-82
2022/11/27 00:39:48;;;;;;;17.48;4.68;;;;;;;5.55;97.81;102316.28;5042078;28;20032;-82
2022/11/27 00:42:14;;;;;;;22.25;5.63;;;;;;;5.55;97.68;102307.38;5041328;28;20037;-82
2022/11/27 00:44:39;;;;;;;17.25;4.85;;;;;;;5.53;97.72;102306.56;5040841;28;20072;-82
2022/11/27 00:47:04;;;;;;;19.52;5.35;;;;;;;5.52;98.13;102308.38;5024664;28;20049;-82
2022/11/27 00:49:31;;;;;;;18.67;6.00;;;;;;;5.53;97.73;102304.78;5029418;28;20029;-82
2022/11/27 00:51:56;;;;;;;19.85;5.13;;;;;;;5.53;97.57;102307.44;5031350;28;20033;-82
2022/11/27 00:54:21;;;;;;;20.42;6.20;;;;;;;5.51;97.62;102305.75;5023733;28;20039;-82
2022/11/27 00:56:46;;;;;;;20.58;6.25;;;;;;;5.51;97.80;102295.94;5025990;28;20024;-82
2022/11/27 00:59:12;;;;;;;20.88;5.53;;;;;;;5.49;97.96;102289.81;5031056;28;20036;-82
2022/11/27 01:01:41;;;;;;;21.75;5.30;;;;;;;5.51;98.00;102287.09;5044490;28;20454;-82
2022/11/27 01:04:14;;;;;;;28.85;6.43;;;;;;;5.50;98.01;102285.31;5047352;28;20068;-82
2022/11/27 01:06:40;;;;;;;17.65;4.70;;;;;;;5.48;97.77;102277.38;5025704;28;20029;-82
2022/11/27 01:09:06;;;;;;;17.60;5.28;;;;;;;5.48;97.90;102272.03;5025304;28;20035;-81
2022/11/27 01:11:35;;;;;;;19.02;5.20;;;;;;;5.48;98.24;102277.38;5031564;28;20052;-81
2022/11/27 01:14:16;;;;;;;21.90;6.63;;;;;;;5.48;97.98;102265.84;5039611;28;20465;-81
2022/11/27 01:16:41;;;;;;;19.90;5.47;;;;;;;5.43;97.76;102260.63;5043873;28;20020;-81
2022/11/27 01:19:09;;;;;;;18.58;5.30;;;;;;;5.40;98.00;102255.38;5026339;28;20025;-81
2022/11/27 01:21:34;;;;;;;20.40;5.63;;;;;;;5.41;98.14;102260.66;5019852;28;20030;-81
2022/11/27 01:24:03;;;;;;;17.80;6.03;;;;;;;5.40;98.23;102271.38;5016254;28;20402;-81
2022/11/27 01:26:30;;;;;;;19.83;5.70;;;;;;;5.39;98.38;102272.31;5040534;28;20397;-81
2022/11/27 01:28:57;;;;;;;19.17;5.63;;;;;;;5.39;98.34;102278.50;5017202;28;20319;-81
2022/11/27 01:31:25;;;;;;;22.85;5.80;;;;;;;5.40;98.58;102263.38;5036994;28;20564;-81
2022/11/27 01:33:53;;;;;;;18.42;5.50;;;;;;;5.41;98.59;102259.81;5040700;28;20087;-81
2022/11/27 01:36:18;;;;;;;21.42;5.47;;;;;;;5.43;98.23;102249.97;5022686;28;20032;-81
2022/11/27 01:38:43;;;;;;;23.10;5.88;;;;;;;5.45;98.17;102245.47;5037684;28;20029;-81
2022/11/27 01:41:15;;;;;;;19.17;5.63;;;;;;;5.43;98.25;102236.63;5026325;28;20090;-81
2022/11/27 01:43:42;;;;;;;22.95;5.95;;;;;;;5.44;98.08;102238.38;5038910;28;20032;-81
2022/11/27 01:46:32;;;;;;;17.55;4.85;;;;;;;5.45;98.02;102240.13;5042577;28;20051;-82
2022/11/27 01:49:24;;;;;;;22.15;6.38;;;;;;;5.46;98.07;102233.91;5041599;28;20071;-82
2022/11/27 01:52:14;;;;;;;22.75;5.88;;;;;;;5.46;97.86;102225.00;5038212;28;20033;-81
2022/11/27 01:54:50;;;;;;;19.98;5.80;;;;;;;5.45;97.83;102223.25;5040189;28;20100;-81
2022/11/27 01:57:20;;;;;;;23.15;6.30;;;;;;;5.41;97.47;102211.81;5047336;28;20474;-82
2022/11/27 01:59:47;;;;;;;19.10;5.70;;;;;;;5.38;97.49;102198.56;5027154;28;20119;-82
2022/11/27 02:02:12;;;;;;;21.10;6.60;;;;;;;5.35;97.49;102202.19;5040338;28;20049;-81
2022/11/27 02:04:38;;;;;;;24.63;5.82;;;;;;;5.34;97.53;102203.09;5029113;28;20524;-81
2022/11/27 02:07:03;;;;;;;22.10;6.20;;;;;;;5.31;97.19;102186.34;5034894;28;20416;-81
2022/11/27 02:09:30;;;;;;;29.20;6.32;;;;;;;5.28;96.99;102183.78;5042189;28;20024;-82
2022/11/27 02:12:09;;;;;;;20.17;5.75;;;;;;;5.24;97.12;102186.53;5043645;28;20051;-82
2022/11/27 02:14:49;;;;;;;23.40;7.15;;;;;;;5.21;96.92;102175.06;5040989;28;20025;-82
2022/11/27 02:17:26;;;;;;;;;;;;;;;5.27;97.18;102171.34;5012706;28;20014;-81
2022/11/27 02:20:17;;;;;;;20.23;5.95;;;;;;;5.19;97.13;102166.25;5042272;28;19939;-82
2022/11/27 02:23:07;;;;;;;18.65;6.40;;;;;;;5.16;96.88;102167.22;5026169;28;20021;-81
2022/11/27 02:25:49;;;;;;;18.80;5.57;;;;;;;5.15;96.82;102161.94;5040167;28;20135;-81
2022/11/27 02:28:41;;;;;;;18.70;5.93;;;;;;;5.15;97.04;102153.94;5028476;28;20033;-81
2022/11/27 02:31:20;;;;;;;22.77;6.03;;;;;;;5.09;97.08;102155.00;5035888;28;20392;-81
2022/11/27 02:33:53;;;;;;;19.30;6.15;;;;;;;5.08;96.88;102161.22;5030386;28;20021;-81
2022/11/27 02:36:22;;;;;;;22.80;6.85;;;;;;;5.08;97.06;102161.22;5023170;28;20101;-81
2022/11/27 02:39:01;;;;;;;21.75;6.15;;;;;;;5.08;97.08;102166.56;5042962;28;20025;-81
2022/11/27 02:42:11;;;;;;;26.35;7.22;;;;;;;5.07;96.85;102146.19;5043792;28;20041;-81
2022/11/27 02:44:42;;;;;;;20.10;7.10;;;;;;;5.02;96.82;102140.09;4978517;28;20037;-81
2022/11/27 02:47:10;;;;;;;18.83;7.05;;;;;;;5.00;97.20;102137.47;5020356;28;20100;-81
2022/11/27 02:49:38;;;;;;;17.80;5.53;;;;;;;4.99;96.80;102141.09;5027060;28;20040;-81
2022/11/27 02:52:04;;;;;;;23.17;5.82;;;;;;;4.99;96.58;102150.84;5016275;28;20116;-81
2022/11/27 02:54:32;;;;;;;20.90;6.68;;;;;;;5.00;96.56;102152.59;5021296;28;20026;-81
2022/11/27 02:57:02;;;;;;;23.15;8.00;;;;;;;5.01;96.63;102159.69;5042985;28;20492;-81
2022/11/27 02:59:30;;;;;;;20.10;6.63;;;;;;;5.01;96.67;102157.03;5039452;28;20044;-81
2022/11/27 03:02:12;;;;;;;19.52;6.43;;;;;;;5.02;96.38;102159.66;5038970;28;20041;-82
2022/11/27 03:04:44;;;;;;;20.35;6.50;;;;;;;5.04;96.49;102159.59;5025157;28;20625;-82
2022/11/27 03:07:15;;;;;;;23.65;6.68;;;;;;;5.04;96.04;102157.78;5027929;28;20029;-81
2022/11/27 03:09:45;;;;;;;16.67;6.38;;;;;;;5.06;95.87;102163.06;5017108;28;20025;-81
2022/11/27 03:12:11;;;;;;;18.42;5.38;;;;;;;5.08;96.23;102159.47;5044106;28;20068;-81
2022/11/27 03:14:39;;;;;;;20.45;5.85;;;;;;;5.12;95.92;102151.38;5041433;28;20498;-81
2022/11/27 03:17:17;;;;;;;20.60;6.30;;;;;;;5.14;96.05;102150.41;5042935;28;20025;-81
2022/11/27 03:20:21;;;;;;;19.90;6.05;;;;;;;5.16;95.57;102142.38;5036552;28;20450;-81
2022/11/27 03:22:46;;;;;;;17.13;6.22;;;;;;;5.16;95.38;102135.25;5044705;28;20056;-81
2022/11/27 03:25:12;;;;;;;15.25;4.85;;;;;;;5.19;95.11;102143.13;5047830;28;20029;-82
2022/11/27 03:27:44;;;;;;;20.63;5.13;;;;;;;5.20;94.94;102139.56;5050597;28;20656;-81
2022/11/27 03:30:11;;;;;;;19.42;5.40;;;;;;;5.22;94.73;102147.50;5045964;28;20033;-81
2022/11/27 03:32:37;;;;;;;19.60;6.15;;;;;;;5.24;94.26;102140.31;5033227;28;20031;-81
2022/11/27 03:35:05;;;;;;;19.35;5.18;;;;;;;5.26;94.35;102141.19;5047394;28;20029;-81
2022/11/27 03:37:34;;;;;;;18.45;4.82;;;;;;;5.27;93.88;102136.69;5053116;28;20194;-81
2022/11/27 03:39:59;;;;;;;17.02;4.88;;;;;;;5.27;93.96;102126.03;5044034;28;20033;-81
2022/11/27 03:42:46;;;;;;;18.60;5.03;;;;;;;5.31;94.09;102114.38;5033021;28;20051;-81
2022/11/27 03:45:33;;;;;;;19.80;4.80;;;;;;;5.32;93.41;102108.13;5027300;28;20024;-81
2022/11/27 03:48:10;;;;;;;20.10;4.97;;;;;;;5.28;92.95;102103.81;5020763;28;20032;-81
2022/11/27 03:50:38;;;;;;;22.52;5.72;;;;;;;5.29;92.96;102106.44;5042519;28;20037;-81
2022/11/27 03:53:31;;;;;;;14.68;4.68;;;;;;;5.31;93.08;102107.25;5030748;28;20460;-81
2022/11/27 03:56:33;;;;;;;18.27;5.30;;;;;;;5.33;92.80;102108.09;5042127;28;20511;-81
2022/11/27 03:59:07;;;;;;;17.58;5.00;;;;;;;5.31;92.65;102109.91;5048389;28;20477;-81
2022/11/27 04:01:33;;;;;;;17.33;5.20;;;;;;;5.33;92.13;102117.84;5044444;28;20108;-81
2022/11/27 04:03:58;;;;;;;15.85;5.10;;;;;;;5.32;92.27;102106.31;5045243;28;20414;-81
2022/11/27 04:06:23;;;;;;;18.88;5.20;;;;;;;5.34;91.96;102122.28;5047031;28;20025;-82
2022/11/27 04:08:49;;;;;;;18.38;4.57;;;;;;;5.33;91.48;102124.06;5047704;28;20099;-81
2022/11/27 04:11:15;;;;;;;14.63;4.82;;;;;;;5.35;92.23;102118.69;5022709;28;20045;-81
2022/11/27 04:13:40;;;;;;;18.98;5.18;;;;;;;5.36;91.98;102128.41;5033235;28;20029;-81
2022/11/27 04:16:09;;;;;;;20.52;4.78;;;;;;;5.37;91.53;102127.50;5045017;28;20033;-81
2022/11/27 04:18:34;;;;;;;17.50;4.40;;;;;;;5.38;91.80;102131.94;5028975;28;20025;-81
2022/11/27 04:20:59;;;;;;;16.10;4.35;;;;;;;5.39;91.66;102134.53;5027654;28;20037;-82
2022/11/27 04:23:25;;;;;;;16.17;4.40;;;;;;;5.42;91.74;102128.25;5032941;28;20097;-82
2022/11/27 04:25:50;;;;;;;13.75;4.13;;;;;;;5.42;91.76;102129.13;5028162;28;20516;-81
2022/11/27 04:28:16;;;;;;;18.60;4.57;;;;;;;5.41;91.33;102126.50;5023804;28;20435;-81
2022/11/27 04:30:42;;;;;;;16.23;4.57;;;;;;;5.40;91.14;102114.06;5024655;28;20029;-81
2022/11/27 04:33:07;;;;;;;19.38;4.57;;;;;;;5.38;91.48;102119.47;5028766;28;20029;-81
2022/11/27 04:35:32;;;;;;;18.08;4.63;;;;;;;5.39;91.25;102118.53;5039635;28;20104;-81
2022/11/27 04:37:58;;;;;;;14.27;4.32;;;;;;;5.39;91.48;102118.53;5028629;28;20400;-81
2022/11/27 04:40:23;;;;;;;16.65;4.65;;;;;;;5.38;91.84;102121.25;5041766;28;20053;-81
2022/11/27 04:42:49;;;;;;;16.85;4.65;;;;;;;5.38;91.50;102123.94;5046662;28;20057;-81
2022/11/27 04:45:15;;;;;;;15.95;4.63;;;;;;;5.36;91.73;102131.09;5047235;28;20471;-81
2022/11/27 04:47:40;;;;;;;17.85;4.30;;;;;;;5.36;91.77;102115.09;5032255;28;20021;-81
2022/11/27 04:50:06;;;;;;;17.23;4.85;;;;;;;5.37;91.32;102109.75;5045199;28;20350;-81
2022/11/27 04:52:31;;;;;;;18.50;4.55;;;;;;;5.39;91.78;102102.56;5044671;28;20056;-81
2022/11/27 04:54:57;;;;;;;15.00;4.72;;;;;;;5.40;91.66;102111.41;5044297;28;20021;-81
2022/11/27 04:57:22;;;;;;;13.88;4.43;;;;;;;5.39;91.75;102091.88;5026884;28;20086;-81
2022/11/27 04:59:48;;;;;;;16.50;4.50;;;;;;;5.38;91.55;102095.47;5038786;28;20115;-81
2022/11/27 05:02:13;;;;;;;19.42;4.65;;;;;;;5.40;91.68;102082.09;5027519;28;20021;-81
2022/11/27 05:04:38;;;;;;;17.05;4.97;;;;;;;5.41;91.85;102084.69;5044060;28;20468;-81
2022/11/27 05:07:04;;;;;;;17.67;5.15;;;;;;;5.43;91.27;102079.31;5028302;28;20033;-81
2022/11/27 05:09:29;;;;;;;17.88;4.90;;;;;;;5.46;91.18;102076.56;5025350;28;20021;-81
2022/11/27 05:11:54;;;;;;;18.48;4.50;;;;;;;5.48;91.30;102072.06;5025890;28;20064;-81
2022/11/27 05:14:21;;;;;;;13.43;3.83;;;;;;;5.48;91.20;102064.06;5047106;28;20369;-81
2022/11/27 05:16:48;;;;;;;15.38;4.13;;;;;;;5.48;90.84;102069.38;5047501;28;20264;-81
2022/11/27 05:19:15;;;;;;;19.23;4.80;;;;;;;5.48;91.24;102058.72;5024571;28;20028;-81
2022/11/27 05:21:41;;;;;;;16.55;4.93;;;;;;;5.49;91.30;102060.47;5045180;28;20441;-81
2022/11/27 05:24:07;;;;;;;18.23;5.13;;;;;;;5.50;90.81;102051.53;5042050;28;20036;-81
2022/11/27 05:26:33;;;;;;;16.60;4.53;;;;;;;5.51;91.20;102058.63;5048757;28;20040;-81
2022/11/27 05:28:58;;;;;;;16.23;4.18;;;;;;;5.53;91.27;102056.75;5018955;28;20061;-81
2022/11/27 05:31:24;;;;;;;15.00;4.35;;;;;;;5.55;90.79;102048.72;5028393;28;20029;-81
2022/11/27 05:33:49;;;;;;;17.17;3.95;;;;;;;5.57;90.73;102062.88;5017215;28;20028;-81
2022/11/27 05:36:14;;;;;;;15.40;4.55;;;;;;;5.57;90.73;102050.41;5044915;28;20033;-81
2022/11/27 05:38:40;;;;;;;13.10;4.43;;;;;;;5.59;90.72;102045.03;5021564;28;20029;-81
2022/11/27 05:41:06;;;;;;;15.88;4.72;;;;;;;5.61;90.38;102037.88;5045079;28;20104;-81
2022/11/27 05:43:31;;;;;;;12.82;3.78;;;;;;;5.59;90.67;102037.91;5044734;28;20503;-81
2022/11/27 05:45:56;;;;;;;16.08;4.57;;;;;;;5.55;90.46;102036.28;5029849;28;20564;-81
2022/11/27 05:48:21;;;;;;;17.15;4.85;;;;;;;5.56;91.10;102029.13;5045562;28;20065;-81
2022/11/27 05:50:47;;;;;;;14.98;4.10;;;;;;;5.55;90.64;102033.59;5038891;28;20025;-82
2022/11/27 05:53:12;;;;;;;18.45;5.13;;;;;;;5.55;90.93;102027.38;5030602;28;20020;-82
2022/11/27 05:55:38;;;;;;;19.60;4.65;;;;;;;5.55;90.78;102025.59;5027184;28;20051;-81
2022/11/27 05:58:03;;;;;;;17.90;4.18;;;;;;;5.55;90.81;102012.28;5038647;28;20037;-81
2022/11/27 06:00:29;;;;;;;17.55;4.20;;;;;;;5.56;90.57;102015.78;5018362;28;20033;-81
2022/11/27 06:02:54;;;;;;;13.02;4.10;;;;;;;5.58;91.08;102016.63;5045083;28;20439;-82
2022/11/27 06:05:20;;;;;;;17.20;4.18;;;;;;;5.58;90.63;102012.16;5027521;28;20025;-82
2022/11/27 06:07:45;;;;;;;14.48;4.43;;;;;;;5.60;90.99;102020.09;5038582;28;20127;-81
2022/11/27 06:10:10;;;;;;;13.13;3.80;;;;;;;5.60;90.68;102014.78;5041606;28;20021;-81
2022/11/27 06:12:36;;;;;;;16.95;4.70;;;;;;;5.61;90.49;102008.53;5031213;28;20079;-81
2022/11/27 06:15:02;;;;;;;16.42;4.88;;;;;;;5.62;91.43;102012.91;5045046;28;20036;-81
2022/11/27 06:17:27;;;;;;;13.70;4.43;;;;;;;5.63;90.78;102011.16;5021768;28;20044;-81
2022/11/27 06:19:53;;;;;;;13.77;4.28;;;;;;;5.64;91.23;102010.19;5042656;28;20898;-81
2022/11/27 06:22:18;;;;;;;16.38;4.32;;;;;;;5.64;91.39;102005.75;5026862;28;20036;-81
2022/11/27 06:24:43;;;;;;;17.17;4.82;;;;;;;5.65;91.35;102007.50;5046257;28;20032;-81
2022/11/27 06:27:09;;;;;;;19.08;4.90;;;;;;;5.65;91.24;102001.28;5044876;28;20055;-81
2022/11/27 06:29:36;;;;;;;12.95;3.83;;;;;;;5.66;90.75;102008.38;5038419;28;20028;-81
2022/11/27 06:32:03;;;;;;;16.48;4.70;;;;;;;5.65;91.97;102001.28;5040500;28;20107;-81
2022/11/27 06:34:29;;;;;;;12.43;4.28;;;;;;;5.66;92.44;102003.03;5023417;28;20540;-81
2022/11/27 06:36:54;;;;;;;15.15;3.88;;;;;;;5.66;92.22;102005.69;5026904;28;20515;-81
2022/11/27 06:39:19;;;;;;;16.10;4.38;;;;;;;5.67;92.69;102010.97;5041993;28;20064;-81
2022/11/27 06:41:45;;;;;;;12.85;3.90;;;;;;;5.66;92.64;102009.22;5040104;28;20125;-81
2022/11/27 06:44:10;;;;;;;14.35;4.28;;;;;;;5.66;92.83;102005.69;5044878;28;20334;-81
2022/11/27 06:46:35;;;;;;;15.60;4.53;;;;;;;5.66;92.75;102009.22;5044619;28;20059;-81
2022/11/27 06:49:01;;;;;;;18.85;4.88;;;;;;;5.65;93.73;102006.63;5042939;28;20045;-81
2022/11/27 06:51:29;;;;;;;20.83;5.00;;;;;;;5.65;92.70;101995.94;5039931;28;20033;-81
2022/11/27 06:53:55;;;;;;;17.25;4.57;;;;;;;5.64;93.38;101996.84;5039041;28;20036;-81
2022/11/27 06:56:23;;;;;;;18.40;4.75;;;;;;;5.63;94.33;101984.47;5029846;28;20071;-81
2022/11/27 06:58:52;;;;;;;11.93;3.60;;;;;;;5.63;94.36;101984.47;5042916;28;20025;-81
2022/11/27 07:01:18;;;;;;;14.55;3.25;;;;;;;5.66;94.82;101984.38;5040234;28;20025;-81
2022/11/27 07:03:44;;;;;;;15.63;4.50;;;;;;;5.62;95.65;101974.72;5022773;28;20021;-81
2022/11/27 07:06:14;;;;;;;17.90;5.03;;;;;;;5.61;95.78;101979.19;5047331;28;20104;-81
2022/11/27 07:08:39;;;;;;;;;;;;;;;5.67;94.94;101976.31;5020668;28;20091;-81
2022/11/27 07:11:17;;;;;;;15.88;4.18;;;;;;;5.61;95.97;101973.84;5025087;28;19925;-81
2022/11/27 07:13:43;;;;;;;16.55;4.78;;;;;;;5.58;96.47;101969.50;5043379;28;20374;-81
2022/11/27 07:16:09;;;;;;;17.23;5.15;;;;;;;5.58;96.43;101947.31;5041786;28;20045;-81
2022/11/27 07:18:37;;;;;;;15.45;4.07;;;;;;;5.60;96.30;101938.31;5027161;28;20520;-81
2022/11/27 07:21:03;;;;;;;17.20;4.35;;;;;;;5.58;96.67;101949.97;5044683;28;20045;-81
2022/11/27 07:23:28;;;;;;;13.70;4.55;;;;;;;5.55;97.18;101940.28;5052574;28;20048;-81
2022/11/27 07:25:53;;;;;;;14.82;4.35;;;;;;;5.54;97.36;101941.19;5035514;28;20025;-81
2022/11/27 07:28:19;;;;;;;16.25;4.97;;;;;;;5.55;97.22;101942.94;5050312;28;20043;-81
2022/11/27 07:30:44;;;;;;;12.93;4.18;;;;;;;5.54;97.44;101938.53;5048053;28;20039;-81
2022/11/27 07:33:09;;;;;;;14.32;3.85;;;;;;;5.54;97.45;101930.53;5045705;28;20442;-81
2022/11/27 07:35:34;;;;;;;12.27;3.88;;;;;;;5.53;98.32;101928.78;5032834;28;20510;-81
2022/11/27 07:38:00;;;;;;;12.68;3.72;;;;;;;5.54;97.83;101924.31;5033441;28;20029;-81
2022/11/27 07:40:25;;;;;;;17.02;4.53;;;;;;;5.53;98.18;101927.91;5048693;28;20033;-81
2022/11/27 07:42:50;;;;;;;13.32;4.35;;;;;;;5.54;98.12;101929.66;5029422;28;20025;-80
2022/11/27 07:45:16;;;;;;;17.50;4.03;;;;;;;5.54;99.33;101925.19;5044874;28;20465;-80
2022/11/27 07:47:41;;;;;;;16.45;4.25;;;;;;;5.57;98.93;101927.75;5053043;28;20056;-81
2022/11/27 07:50:08;;;;;;;17.80;4.75;;;;;;;5.57;98.72;101916.22;5047471;28;20491;-81
2022/11/27 07:52:35;;;;;;;17.73;4.78;;;;;;;5.57;98.53;101913.56;5045871;28;20494;-81
2022/11/27 07:55:01;;;;;;;18.15;5.03;;;;;;;5.57;99.40;101898.41;5044347;28;20029;-81
2022/11/27 07:57:27;;;;;;;11.68;3.92;;;;;;;5.57;98.77;101897.53;5026421;28;20044;-81
2022/11/27 07:59:52;;;;;;;15.75;4.60;;;;;;;5.56;98.55;101879.78;5044024;28;20150;-81
2022/11/27 08:02:18;;;;;;;15.60;4.45;;;;;;;5.56;99.58;101890.47;5038105;28;20513;-81
2022/11/27 08:04:43;;;;;;;13.63;4.55;;;;;;;5.58;99.59;101892.16;5033493;28;20040;-80
2022/11/27 08:07:08;;;;;;;18.95;4.75;;;;;;;5.62;99.39;101889.38;5046467;28;20029;-80
2022/11/27 08:09:34;;;;;;;17.13;4.15;;;;;;;5.61;99.06;101883.19;5027573;28;20072;-80
2022/11/27 08:11:59;;;;;;;20.60;5.40;;;;;;;5.63;98.94;101888.47;5044856;28;20061;-81
2022/11/27 08:14:24;;;;;;;10.90;4.28;;;;;;;5.62;99.34;101881.38;5019200;28;20561;-81
2022/11/27 08:16:49;;;;;;;17.30;4.75;;;;;;;5.64;99.85;101884.84;5045837;28;20029;-81
2022/11/27 08:19:15;;;;;;;31.27;5.47;;;;;;;5.63;99.53;101885.78;5023791;28;20469;-81
2022/11/27 08:21:40;;;;;;;17.48;5.15;;;;;;;5.63;99.69;101888.47;5025994;28;20056;-81
2022/11/27 08:24:06;;;;;;;16.38;5.15;;;;;;;5.64;99.80;101887.50;5047118;28;20040;-81
2022/11/27 08:26:34;;;;;;;15.98;4.30;;;;;;;5.67;99.89;101890.97;5045448;28;20083;-81
2022/11/27 08:28:59;;;;;;;20.15;5.38;;;;;;;5.69;99.77;101888.22;5038537;28;20112;-81
2022/11/27 08:31:25;;;;;;;16.95;5.40;;;;;;;5.72;100.00;101880.13;5025889;28;20175;-81
2022/11/27 08:33:50;;;;;;;15.60;5.13;;;;;;;5.73;99.61;101882.72;5021973;28;20476;-81
2022/11/27 08:36:15;;;;;;;22.02;5.50;;;;;;;5.76;100.00;101892.44;5024660;28;20523;-81
2022/11/27 08:38:41;;;;;;;16.75;5.07;;;;;;;5.79;100.00;101884.31;5034401;28;20026;-81
2022/11/27 08:41:07;;;;;;;16.30;6.05;;;;;;;5.80;100.00;101887.84;5034220;28;20409;-81
2022/11/27 08:43:33;;;;;;;19.92;5.95;;;;;;;5.83;99.98;101885.03;5032018;28;20036;-81
2022/11/27 08:45:59;;;;;;;20.25;5.95;;;;;;;5.82;99.59;101886.84;5018541;28;20420;-81
2022/11/27 08:48:25;;;;;;;21.58;5.43;;;;;;;5.84;100.00;101885.03;5022070;28;20411;-81
2022/11/27 08:50:51;;;;;;;19.80;5.85;;;;;;;5.86;100.00;101883.16;5041481;28;20035;-81
2022/11/27 08:53:17;;;;;;;19.83;6.57;;;;;;;5.91;100.00;101889.19;5029581;28;20071;-81
2022/11/27 08:55:43;;;;;;;19.92;6.15;;;;;;;5.95;100.00;101898.81;5026639;28;20021;-81
2022/11/27 08:58:09;;;;;;;20.13;7.68;;;;;;;5.94;99.72;101891.75;5040529;28;20120;-81
2022/11/27 09:00:35;;;;;;;20.90;6.80;;;;;;;5.97;100.00;101892.56;5042504;28;20505;-81
2022/11/27 09:03:01;;;;;;;20.40;5.63;;;;;;;5.98;99.98;101900.53;5048239;28;20033;-81
2022/11/27 09:05:27;;;;;;;23.83;7.20;;;;;;;6.02;100.00;101896.84;5046775;28;20024;-81
2022/11/27 09:07:52;;;;;;;21.13;7.50;;;;;;;6.03;100.00;101900.38;5025446;28;20202;-81
2022/11/27 09:10:21;;;;;;;18.83;6.65;;;;;;;6.05;100.00;101904.72;5015182;28;20125;-81
2022/11/27 09:12:50;;;;;;;20.85;6.82;;;;;;;6.06;100.00;101893.13;5013310;28;20558;-81
2022/11/27 09:15:16;;;;;;;20.05;6.70;;;;;;;6.07;100.00;101880.66;5029449;28;20112;-81
2022/11/27 09:17:42;;;;;;;20.90;6.15;;;;;;;6.08;100.00;101883.25;5029002;28;20048;-81
2022/11/27 09:20:07;;;;;;;20.58;6.72;;;;;;;6.08;100.00;101885.91;5029867;28;20157;-81
2022/11/27 09:22:34;;;;;;;21.55;6.97;;;;;;;6.11;100.00;101887.59;5030834;28;20030;-81
2022/11/27 09:24:59;;;;;;;18.20;6.38;;;;;;;6.11;100.00;101887.59;5011574;28;20435;-81
2022/11/27 09:27:26;;;;;;;20.63;7.15;;;;;;;6.13;100.00;101883.06;5030291;28;20017;-81
2022/11/27 09:29:51;;;;;;;19.60;6.97;;;;;;;6.14;100.00;101882.16;5011015;28;20029;-81
2022/11/27 09:32:16;;;;;;;19.50;6.90;;;;;;;6.17;100.00;101879.38;5012510;28;20702;-81
2022/11/27 09:34:42;;;;;;;21.10;7.28;;;;;;;6.18;100.00;101886.44;5011288;28;20250;-81
2022/11/27 09:37:08;;;;;;;28.55;7.63;;;;;;;6.20;100.00;101884.59;5027948;28;20473;-81
2022/11/27 09:39:33;;;;;;;19.25;7.70;;;;;;;6.19;100.00;101881.97;5012650;28;20068;-81
2022/11/27 09:42:01;;;;;;;20.48;7.47;;;;;;;6.21;100.00;101882.78;5029148;28;20057;-81
2022/11/27 09:44:42;;;;;;;22.45;8.10;;;;;;;6.25;100.00;101879.06;5008031;28;20485;-81
2022/11/27 09:47:36;;;;;;;20.75;7.57;;;;;;;6.28;100.00;101874.50;5027470;28;20032;-81
2022/11/27 09:50:16;;;;;;;18.73;7.85;;;;;;;6.29;100.00;101868.19;5029837;28;20049;-81
2022/11/27 09:52:51;;;;;;;21.30;7.35;;;;;;;6.30;100.00;101867.28;5011050;28;20026;-81
2022/11/27 09:55:33;;;;;;;21.50;8.15;;;;;;;6.35;100.00;101866.22;5030937;28;20036;-81
2022/11/27 09:58:11;;;;;;;21.40;7.57;;;;;;;6.34;100.00;101857.38;5028189;28;20416;-81
2022/11/27 10:00:37;;;;;;;20.42;8.23;;;;;;;6.36;100.00;101855.50;5029132;28;20493;-81
2022/11/27 10:03:02;;;;;;;20.75;8.07;;;;;;;6.40;100.00;101848.22;5029832;28;20103;-81
2022/11/27 10:05:35;;;;;;;22.27;8.27;;;;;;;6.39;100.00;101847.34;5011465;28;20376;-81
2022/11/27 10:08:33;;;;;;;19.98;7.80;;;;;;;6.44;100.00;101847.16;5029121;28;21474;-81
2022/11/27 10:11:20;;;;;;;23.63;8.82;;;;;;;6.46;100.00;101840.84;5029042;28;20501;-81
2022/11/27 10:14:20;;;;;;;24.25;8.27;;;;;;;6.48;100.00;101830.09;5039113;28;20376;-81
2022/11/27 10:17:08;;;;;;;21.20;7.95;;;;;;;6.52;100.00;101833.53;5035951;28;20032;-82
2022/11/27 10:19:39;;;;;;;22.67;7.63;;;;;;;6.52;100.00;101823.72;5044020;28;20074;-81
2022/11/27 10:22:18;;;;;;;22.02;8.10;;;;;;;6.55;100.00;101820.91;5046002;28;20029;-82
2022/11/27 10:25:14;;;;;;;18.53;7.47;;;;;;;6.59;100.00;101813.66;5039957;28;20388;-82
2022/11/27 10:27:54;;;;;;;23.58;7.93;;;;;;;6.58;100.00;101815.44;5020826;28;20287;-82
2022/11/27 10:30:20;;;;;;;21.27;8.32;;;;;;;6.60;100.00;101818.94;5047604;28;20021;-82
2022/11/27 10:32:51;;;;;;;24.83;9.23;;;;;;;6.60;100.00;101816.25;5025498;28;20334;-81
2022/11/27 10:35:19;;;;;;;19.08;7.38;;;;;;;6.62;100.00;101808.19;5043708;28;20029;-81
2022/11/27 10:37:48;;;;;;;18.90;7.63;;;;;;;6.64;100.00;101804.50;5047463;28;20077;-81
2022/11/27 10:40:19;;;;;;;21.42;8.20;;;;;;;6.68;100.00;101796.34;5047100;28;20032;-81
2022/11/27 10:42:57;;;;;;;21.08;6.93;;;;;;;6.68;100.00;101791.00;5046980;28;20430;-81
2022/11/27 10:45:36;;;;;;;22.02;7.05;;;;;;;6.71;100.00;101788.22;5022461;28;20468;-81
2022/11/27 10:48:01;;;;;;;19.45;8.02;;;;;;;6.72;100.00;101788.16;5040786;28;20049;-81
2022/11/27 10:50:27;;;;;;;22.55;8.35;;;;;;;6.75;100.00;101790.72;5022052;28;20036;-81
2022/11/27 10:52:58;;;;;;;20.85;7.20;;;;;;;6.76;100.00;101788.88;5029087;28;20227;-81
2022/11/27 10:55:41;;;;;;;19.65;7.13;;;;;;;6.78;100.00;101782.56;5047829;28;20086;-81
2022/11/27 10:58:19;;;;;;;21.73;7.03;;;;;;;6.80;100.00;101774.47;5045743;28;20029;-82
2022/11/27 11:00:46;;;;;;;19.10;6.72;;;;;;;6.79;100.00;101768.28;5043771;28;20029;-82
2022/11/27 11:03:17;;;;;;;23.02;8.27;;;;;;;6.79;100.00;101770.94;5047618;28;20071;-81
2022/11/27 11:05:55;;;;;;;23.83;7.60;;;;;;;6.80;100.00;101758.44;5030873;28;20036;-82
2022/11/27 11:08:20;;;;;;;19.40;6.43;;;;;;;6.80;100.00;101761.13;5039329;28;20468;-82
2022/11/27 11:10:53;;;;;;;21.17;8.10;;;;;;;6.82;100.00;101769.91;5027891;28;20047;-81
2022/11/27 11:13:26;;;;;;;21.92;7.57;;;;;;;6.83;100.00;101752.97;5037694;28;20053;-81
2022/11/27 11:15:59;;;;;;;22.00;8.20;;;;;;;6.84;100.00;101749.38;5033167;28;20052;-82
2022/11/27 11:18:30;;;;;;;21.15;7.30;;;;;;;6.83;100.00;101740.47;5039421;28;20029;-82
2022/11/27 11:21:06;;;;;;;19.77;7.00;;;;;;;6.84;100.00;101744.03;5038636;28;20453;-82
2022/11/27 11:23:31;;;;;;;19.13;7.38;;;;;;;6.83;100.00;101740.47;5019628;28;20032;-82
2022/11/27 11:26:03;;;;;;;19.13;6.60;;;;;;;6.84;100.00;101728.00;5040056;28;20029;-81
2022/11/27 11:28:29;;;;;;;19.67;7.95;;;;;;;6.86;100.00;101735.94;5051371;28;20112;-81
2022/11/27 11:31:04;;;;;;;23.63;8.93;;;;;;;6.86;100.00;101722.56;5043690;28;20043;-81
2022/11/27 11:33:33;;;;;;;19.75;8.20;;;;;;;6.87;100.00;101727.84;5026098;28;20481;-82